Lyndon Station, WI (53944)

12:52 AM CDT on March 31, 2015 (GMT -0500)
WIDOT | | Change Station
CLOSE
Current Station
Personal Weather Station
Location: Mauston, WI
Elevation: 880 ft
Nearby Weather Stations

Elev 880 ft 43.80 °N, 90.06 °W | Updated 51 minutes ago

Overcast
Overcast
42 °F
Feels Like 42 °F
N
3
Wind Variable Wind from NW
Gusts 4.0 mph

Today
High -- | Low -- °F
--% Chance of Precip.
Yesterday
High -- | Low -- °F
Precip. -- in
6:43 AM 7:24 PM
Waxing Gibbous, 84% visible
Pressure 29.79 in
Visibility 10.0 miles
Clouds Scattered Clouds 8000 ft
Windchill 42 °F
Dew Point 41 °F
Humidity 97%
Rainfall in
Snow Depth Not available.
UV 0 out of 12
Pollen 7.80 out of 12
Air Quality Not available.
Flu Activity Not available.
METAR KC35 310535Z AUTO 02005KT 10SM SCT080 06/03 A2979 RMK AO2 T00550030

More Conditions Fewer Conditions

Pressure 29.79 in
Visibility 10.0 miles
Clouds Scattered Clouds 8000 ft
Windchill 42 °F
Dew Point 41 °F
Humidity 97%
Rainfall in
Snow Depth Not available.
UV 0 out of 12
Pollen 7.80 out of 12
Air Quality Not available.
Flu Activity Not available.
METAR KC35 310535Z AUTO 02005KT 10SM SCT080 06/03 A2979 RMK AO2 T00550030

More Conditions Fewer Conditions

10-Day Weather Forecast

Almanac

Astronomy

Mar. 31, 2015 Rise Set
Actual Time
Civil Twilight
Nautical Twilight
Astronomical Twilight
Moon
Length of Visible Light
Length of Day
Tomorrow will be .
, % of the Moon is Illuminated

Today's Extremes

State Highs State Lows

Community

WunderPhotos

Upload Photos

1,809,724 photos uploaded!

WunderBlogs® & News

Nearby

Air Quality

  Air Quality AQ Index Pollutant
Not available.

Snow Depth

Station Depth Elevation

Earthquake Activity

City Distance Mag. Time & Date
Minimum magnitude displayed is 2.5.

Coastal Water Temperatures

Place Temperature

Stations

Nearby Weather Stations

Station Location Temp. Windchill Dew Point Humidity Wind Precip. Elev Updated Type